| time (UTC) | temp C | wind direction | speed KPH | gust KPH | rain 1hr cm | rain 24hr cm | rain mn cm | humidity % | barometer mb |
| 20260507004611 | 16 | 360 | 9.7 | 16.1 | 0.00 | 0.03 | 0.00 | 57 | 1013.6 |
| 20260507003055 | 16 | 360 | 4.8 | 16.1 | 0.00 | 0.03 | 0.00 | 58 | 1012.8 |
| 20260507001556 | 16 | 360 | 8.0 | 19.3 | 0.00 | 0.03 | 0.00 | 57 | 1012.6 |
| 20260507000054 | 16 | 360 | 11.3 | 22.5 | 0.00 | 0.03 | 0.00 | 58 | 1012.8 |
| 20260506234554 | 16 | 360 | 9.7 | 19.3 | 0.00 | 0.03 | 0.00 | 58 | 1012.5 |
| 20260506233057 | 16 | 360 | 11.3 | 19.3 | 0.00 | 0.03 | 0.00 | 57 | 1012.9 |
| 20260506231553 | 16 | 360 | 11.3 | 22.5 | 0.00 | 0.03 | 0.00 | 58 | 1012.6 |
| 20260506230052 | 16 | 360 | 12.9 | 24.1 | 0.00 | 0.03 | 0.00 | 58 | 1012.6 |
| 20260506224551 | 16 | 360 | 12.9 | 24.1 | 0.00 | 0.03 | 0.00 | 58 | 1012.7 |
| 20260506223050 | 16 | 360 | 12.9 | 20.9 | 0.00 | 0.03 | 0.00 | 57 | 1012.5 |
| 20260506221549 | 16 | 360 | 12.9 | 25.7 | 0.00 | 0.03 | 0.00 | 59 | 1012.5 |
| 20260506220049 | 16 | 5 | 12.9 | 25.7 | 0.00 | 0.03 | 0.00 | 58 | 1012.5 |
| 20260506214551 | 16 | 360 | 14.5 | 25.7 | 0.00 | 0.03 | 0.00 | 57 | 1012.4 |
| 20260506213043 | 16 | 360 | 14.5 | 22.5 | 0.00 | 0.03 | 0.00 | 56 | 1012.3 |
| 20260506211542 | 17 | 360 | 11.3 | 22.5 | 0.00 | 0.03 | 0.00 | 56 | 1012.3 |
| 20260506210041 | 17 | 360 | 14.5 | 27.4 | 0.00 | 0.03 | 0.00 | 57 | 1012.3 |
| 20260506204543 | 17 | 360 | 16.1 | 25.7 | 0.00 | 0.03 | 0.00 | 57 | 1012.5 |
| 20260506203035 | 17 | 360 | 14.5 | 27.4 | 0.00 | 0.03 | 0.00 | 57 | 1012.4 |
| 20260506201532 | 18 | 360 | 16.1 | 25.7 | 0.00 | 0.03 | 0.00 | 56 | 1012.4 |
| 20260506200030 | 18 | 360 | 12.9 | 27.4 | 0.00 | 0.03 | 0.00 | 56 | 1012.1 |
| 20260506194529 | 19 | 360 | 11.3 | 24.1 | 0.00 | 0.03 | 0.00 | 57 | 1012.1 |
| 20260506193025 | 18 | 360 | 12.9 | 29.0 | 0.00 | 0.03 | 0.03 | 57 | 1011.9 |
| 20260506191526 | 19 | 360 | 22.5 | 35.4 | 0.00 | 0.03 | 0.03 | 57 | 1011.8 |
| 20260506190027 | 20 | 360 | 20.9 | 35.4 | 0.00 | 0.03 | 0.03 | 58 | 1011.9 |
| 20260506184525 | 22 | 360 | 19.3 | 30.6 | 0.00 | 0.03 | 0.03 | 57 | 1011.8 |
| 20260506183025 | 23 | 360 | 8.0 | 14.5 | 0.00 | 0.03 | 0.03 | 53 | 1011.7 |
| 20260506181525 | 23 | 360 | 3.2 | 6.4 | 0.00 | 0.03 | 0.03 | 53 | 1011.6 |
| 20260506180023 | 22 | 360 | 4.8 | 9.7 | 0.00 | 0.03 | 0.03 | 53 | 1011.9 |
| 20260506174522 | 22 | 360 | 4.8 | 9.7 | 0.00 | 0.03 | 0.03 | 52 | 1011.5 |
| 20260506173022 | 22 | 360 | 4.8 | 14.5 | 0.00 | 0.03 | 0.03 | 53 | 1011.4 |
| 20260506171523 | 22 | 360 | 1.6 | 4.8 | 0.03 | 0.03 | 0.03 | 52 | 1011.5 |
| 20260506170021 | 20 | 360 | 3.2 | 17.7 | 0.03 | 0.03 | 0.03 | 53 | 1011.7 |
| 20260506164520 | 19 | 360 | 6.4 | 19.3 | 0.03 | 0.03 | 0.03 | 51 | 1011.8 |
| 20260506163019 | 17 | 360 | 3.2 | 12.9 | 0.03 | 0.03 | 0.03 | 53 | 1012.1 |
| 20260506161519 | 17 | 360 | 9.7 | 20.9 | 0.00 | 0.00 | 0.00 | 56 | 1012.6 |
| 20260506160016 | 17 | 360 | 16.1 | 29.0 | 0.00 | 0.00 | 0.00 | 55 | 1014.0 |
| 20260506154512 | 18 | 360 | 12.9 | 29.0 | 0.00 | 0.00 | 0.00 | 55 | 1012.3 |
| 20260506153010 | 19 | 360 | 14.5 | 24.1 | 0.00 | 0.00 | 0.00 | 55 | 1011.9 |
| 20260506151504 | 20 | 360 | 12.9 | 27.4 | 0.00 | 0.00 | 0.00 | 56 | 1011.3 |
| 20260506150002 | 24 | 360 | 3.2 | 6.4 | 0.00 | 0.00 | 0.00 | 51 | 1011.1 |
| 20260506144609 | 24 | 360 | 4.8 | 14.5 | 0.00 | 0.00 | 0.00 | 51 | 1010.7 |
| 20260506143059 | 25 | 360 | 6.4 | 17.7 | 0.00 | 0.00 | 0.00 | 51 | 1010.2 |
| 20260506141558 | 25 | 360 | 4.8 | 16.1 | 0.00 | 0.00 | 0.00 | 50 | 1009.7 |
| 20260506140058 | 24 | 360 | 6.4 | 12.9 | 0.00 | 0.00 | 0.00 | 52 | 1009.9 |
| 20260506134600 | 23 | 360 | 6.4 | 16.1 | 0.00 | 0.00 | 0.00 | 53 | 1009.9 |
| 20260506133059 | 23 | 360 | 6.4 | 16.1 | 0.00 | 0.00 | 0.00 | 53 | 1009.5 |
| 20260506131556 | 23 | 360 | 3.2 | 9.7 | 0.00 | 0.00 | 0.00 | 54 | 1009.5 |
| 20260506130054 | 23 | 360 | 4.8 | 12.9 | 0.00 | 0.00 | 0.00 | 54 | 1009.1 |
| 20260506124552 | 23 | 360 | 3.2 | 16.1 | 0.00 | 0.00 | 0.00 | 54 | 1009.0 |
| 20260506123052 | 23 | 360 | 4.8 | 9.7 | 0.00 | 0.00 | 0.00 | 54 | 1008.9 |
| 20260506121551 | 23 | 360 | 3.2 | 8.0 | 0.00 | 0.00 | 0.00 | 55 | 1008.9 |
| 20260506120051 | 23 | 360 | 1.6 | 6.4 | 0.00 | 0.00 | 0.00 | 55 | 1009.0 |
| 20260506114550 | 23 | 360 | 1.6 | 6.4 | 0.00 | 0.00 | 0.00 | 55 | 1008.9 |
| 20260506113050 | 23 | 360 | 0.0 | 4.8 | 0.00 | 0.00 | 0.00 | 55 | 1009.0 |
| 20260506111547 | 23 | 360 | 1.6 | 6.4 | 0.00 | 0.00 | 0.00 | 55 | 1009.1 |
| 20260506110047 | 23 | 360 | 0.0 | 0.0 | 0.00 | 0.00 | 0.00 | 55 | 1009.0 |
| 20260506104554 | 23 | 360 | 0.0 | 0.0 | 0.00 | 0.00 | 0.00 | 55 | 1008.8 |
| 20260506103044 | 23 | 360 | 0.0 | 4.8 | 0.00 | 0.00 | 0.00 | 55 | 1008.7 |
| 20260506101545 | 23 | 360 | 0.0 | 3.2 | 0.00 | 0.00 | 0.00 | 55 | 1008.6 |
| 20260506100044 | 23 | 360 | 1.6 | 8.0 | 0.00 | 0.00 | 0.00 | 55 | 1008.4 |
| 20260506094543 | 23 | 360 | 6.4 | 14.5 | 0.00 | 0.00 | 0.00 | 55 | 1008.0 |
| 20260506093044 | 23 | 360 | 6.4 | 16.1 | 0.00 | 0.00 | 0.00 | 55 | 1007.9 |
| 20260506091543 | 23 | 360 | 8.0 | 19.3 | 0.00 | 0.00 | 0.00 | 56 | 1007.8 |
| 20260506090041 | 23 | 360 | 8.0 | 19.3 | 0.00 | 0.00 | 0.00 | 56 | 1007.6 |
| 20260506084540 | 23 | 360 | 6.4 | 14.5 | 0.00 | 0.00 | 0.00 | 56 | 1007.5 |
| 20260506083041 | 23 | 360 | 9.7 | 19.3 | 0.00 | 0.00 | 0.00 | 55 | 1007.6 |
| 20260506081538 | 23 | 360 | 6.4 | 17.7 | 0.00 | 0.00 | 0.00 | 55 | 1007.5 |
| 20260506073036 | 23 | 360 | 9.7 | 19.3 | 0.00 | 0.00 | 0.00 | 55 | 1008.0 |
| 20260506071535 | 23 | 360 | 9.7 | 29.0 | 0.00 | 0.00 | 0.00 | 55 | 1008.1 |
| 20260506061533 | 23 | 360 | 12.9 | 20.9 | 0.00 | 0.00 | 0.00 | 56 | 1008.0 |
| 20260506044537 | 24 | 360 | 6.4 | 25.7 | 0.00 | 0.00 | 0.00 | 56 | 1008.1 |
| 20260506043025 | 24 | 360 | 11.3 | 20.9 | 0.00 | 0.00 | 0.00 | 56 | 1007.9 |
| 20260506041528 | 24 | 360 | 8.0 | 16.1 | 0.00 | 0.00 | 0.00 | 57 | 1007.9 |
| 20260506040029 | 24 | 360 | 4.8 | 17.7 | 0.00 | 0.00 | 0.00 | 57 | 1007.7 |
| 20260506034525 | 24 | 360 | 6.4 | 19.3 | 0.00 | 0.00 | 0.00 | 58 | 1007.6 |
| 20260506033019 | 25 | 360 | 6.4 | 12.9 | 0.00 | 0.00 | 0.00 | 59 | 1007.4 |
| 20260506031518 | 25 | 360 | 4.8 | 9.7 | 0.00 | 0.00 | 0.00 | 59 | 1007.2 |
| 20260506030013 | 25 | 360 | 4.8 | 14.5 | 0.00 | 0.00 | 0.00 | 59 | 1007.0 |
| 20260506024517 | 25 | 360 | 4.8 | 9.7 | 0.00 | 0.00 | 0.00 | 59 | 1006.8 |
| 20260506023016 | 25 | 360 | 4.8 | 12.9 | 0.00 | 0.00 | 0.00 | 58 | 1006.6 |
| 20260506021509 | 25 | 360 | 4.8 | 9.7 | 0.00 | 0.00 | 0.00 | 58 | 1006.1 |
| 20260506020008 | 26 | 360 | 3.2 | 12.9 | 0.00 | 0.00 | 0.00 | 58 | 1006.1 |
| 20260506014507 | 26 | 360 | 6.4 | 16.1 | 0.00 | 0.00 | 0.00 | 57 | 1005.8 |
| 20260506013004 | 26 | 360 | 6.4 | 16.1 | 0.00 | 0.00 | 0.00 | 56 | 1005.6 |
| 20260506011507 | 26 | 360 | 6.4 | 19.3 | 0.00 | 0.00 | 0.00 | 56 | 1005.6 |